createdAt,value
2023-03-07T00:00:14.993Z,7.57
2023-03-07T00:02:16.537Z,8.15
2023-03-07T00:04:18.277Z,7.93
2023-03-07T00:06:20.112Z,8.77
2023-03-07T00:08:21.790Z,8.87
2023-03-07T00:10:23.508Z,8.52
2023-03-07T00:12:25.664Z,8.57
2023-03-07T00:14:35.215Z,8.93
2023-03-07T00:16:36.848Z,8.57
2023-03-07T00:18:38.504Z,8.98
2023-03-07T00:20:44.072Z,8.93
2023-03-07T00:22:48.725Z,9.10
2023-03-07T00:24:50.236Z,9.57
2023-03-07T00:26:54.834Z,9.18
2023-03-07T00:28:56.407Z,9.07
2023-03-07T00:31:07.270Z,10.02
2023-03-07T00:33:08.816Z,10.45
2023-03-07T00:35:10.427Z,10.13
2023-03-07T00:37:12.202Z,10.13
2023-03-07T00:39:13.860Z,10.50
2023-03-07T00:41:20.523Z,10.05
2023-03-07T00:43:22.008Z,10.10
2023-03-07T00:45:23.903Z,10.05
2023-03-07T00:47:25.732Z,10.20
2023-03-07T00:49:28.285Z,10.38
2023-03-07T00:51:29.918Z,9.82
2023-03-07T00:53:32.434Z,10.68
2023-03-07T00:55:34.339Z,11.47
2023-03-07T00:57:36.128Z,10.27
2023-03-07T00:59:37.661Z,11.43
2023-03-07T01:01:42.305Z,10.68
2023-03-07T01:03:44.222Z,10.43
2023-03-07T01:05:50.451Z,11.05
2023-03-07T01:07:52.153Z,10.68
2023-03-07T01:09:54.395Z,10.73
2023-03-07T01:11:56.290Z,11.05
2023-03-07T01:14:02.398Z,10.60
2023-03-07T01:16:17.101Z,10.70
2023-03-07T01:18:18.723Z,10.37
2023-03-07T01:20:20.894Z,10.13
2023-03-07T01:22:24.341Z,10.65
2023-03-07T01:24:26.623Z,10.48
2023-03-07T01:26:31.199Z,11.38
2023-03-07T01:28:33.665Z,10.40
2023-03-07T01:30:35.365Z,10.98
2023-03-07T01:32:37.173Z,10.55
2023-03-07T01:34:39.795Z,10.85
2023-03-07T01:36:41.534Z,10.00
2023-03-07T01:38:43.263Z,10.40
2023-03-07T01:40:46.039Z,11.80
2023-03-07T01:42:47.904Z,10.23
2023-03-07T01:45:28.291Z,10.13
2023-03-07T01:47:33.086Z,11.13
2023-03-07T01:49:40.700Z,11.50
2023-03-07T01:51:46.488Z,10.23
2023-03-07T01:53:51.213Z,10.80
2023-03-07T01:55:53.184Z,10.50
2023-03-07T01:57:56.696Z,10.43
2023-03-07T02:00:01.253Z,10.10
2023-03-07T02:02:12.312Z,10.52
2023-03-07T02:04:24.633Z,9.30
2023-03-07T02:06:28.600Z,9.68
2023-03-07T02:08:32.174Z,9.75
2023-03-07T02:10:36.692Z,9.90
2023-03-07T02:12:40.260Z,9.75
2023-03-07T02:14:48.592Z,9.48
2023-03-07T02:16:51.410Z,10.00
2023-03-07T02:18:53.098Z,9.10
2023-03-07T02:21:13.257Z,9.63
2023-03-07T02:23:27.762Z,9.60
2023-03-07T02:25:41.981Z,10.32
2023-03-07T02:27:46.140Z,9.53
2023-03-07T02:29:48.333Z,9.90
2023-03-07T02:31:50.928Z,10.50
2023-03-07T02:33:53.077Z,9.68
2023-03-07T02:35:58.133Z,10.02
2023-03-07T02:38:06.517Z,9.15
2023-03-07T02:40:12.725Z,10.18
2023-03-07T02:42:18.771Z,9.05
2023-03-07T02:44:25.223Z,10.32
2023-03-07T02:46:27.291Z,10.23
2023-03-07T02:48:28.847Z,9.85
2023-03-07T02:50:31.012Z,9.75
2023-03-07T02:52:32.906Z,9.60
2023-03-07T02:54:34.641Z,10.00
2023-03-07T02:56:36.589Z,9.55
2023-03-07T02:58:38.330Z,9.90
2023-03-07T03:00:39.995Z,9.35
2023-03-07T03:02:41.960Z,9.57
2023-03-07T03:04:43.799Z,10.93
2023-03-07T03:06:45.707Z,9.70
2023-03-07T03:08:47.340Z,9.43
2023-03-07T03:10:56.243Z,10.10
2023-03-07T03:13:00.169Z,9.57
2023-03-07T03:15:02.168Z,9.48
2023-03-07T03:17:06.614Z,10.10
2023-03-07T03:19:08.804Z,9.70
2023-03-07T03:21:11.674Z,9.95
2023-03-07T03:23:13.714Z,9.60
2023-03-07T03:25:15.458Z,9.75
2023-03-07T03:27:19.280Z,10.00
2023-03-07T03:29:25.442Z,9.37
2023-03-07T03:31:30.507Z,9.80
2023-03-07T03:33:32.861Z,9.00
2023-03-07T03:35:35.039Z,9.57
2023-03-07T03:37:37.159Z,10.23
2023-03-07T03:39:40.738Z,10.07
2023-03-07T03:41:42.798Z,9.53
2023-03-07T03:43:47.759Z,9.75
2023-03-07T03:45:56.894Z,9.45
2023-03-07T03:48:00.628Z,10.40
2023-03-07T03:50:05.301Z,10.63
2023-03-07T03:52:10.322Z,9.33
2023-03-07T03:54:11.876Z,9.57
2023-03-07T03:56:16.517Z,10.10
2023-03-07T03:58:18.224Z,9.23
2023-03-07T04:00:21.181Z,9.30
2023-03-07T04:02:23.291Z,9.60
2023-03-07T04:04:25.786Z,9.60
2023-03-07T04:06:35.627Z,9.10
2023-03-07T04:08:39.239Z,9.63
2023-03-07T04:10:41.025Z,9.20
2023-03-07T04:12:49.947Z,9.20
2023-03-07T04:14:51.918Z,8.80
2023-03-07T04:16:53.617Z,8.52
2023-03-07T04:18:55.516Z,8.87
2023-03-07T04:20:57.766Z,9.45
2023-03-07T04:22:59.545Z,9.70
2023-03-07T04:25:01.196Z,8.63
2023-03-07T04:27:03.171Z,9.70
2023-03-07T04:29:05.231Z,9.00
2023-03-07T04:31:16.728Z,9.33
2023-03-07T04:33:20.426Z,9.60
2023-03-07T04:35:23.822Z,10.03
2023-03-07T04:37:26.079Z,9.37
2023-03-07T04:39:27.915Z,10.30
2023-03-07T04:41:29.976Z,9.27
2023-03-07T04:43:42.553Z,9.00
2023-03-07T04:45:44.790Z,9.80
2023-03-07T04:47:46.582Z,10.00
2023-03-07T04:49:48.439Z,9.97
2023-03-07T04:51:55.214Z,9.80
2023-03-07T04:53:57.113Z,9.47
2023-03-07T04:56:08.342Z,9.53
2023-03-07T04:58:13.207Z,9.35
2023-03-07T05:00:16.251Z,9.57
2023-03-07T05:02:18.314Z,10.20
2023-03-07T05:04:19.921Z,9.23
2023-03-07T05:06:21.655Z,10.07
2023-03-07T05:08:25.474Z,9.00
2023-03-07T05:10:29.185Z,9.15
2023-03-07T05:12:33.914Z,9.23
2023-03-07T05:14:35.527Z,9.00
2023-03-07T05:16:37.260Z,9.90
2023-03-07T05:18:38.853Z,9.67
2023-03-07T05:20:43.179Z,9.33
2023-03-07T05:22:45.296Z,8.87
2023-03-07T05:24:47.194Z,9.33
2023-03-07T05:26:48.991Z,9.18
2023-03-07T05:28:50.735Z,9.00
2023-03-07T05:30:53.558Z,9.20
2023-03-07T05:32:56.029Z,8.57
2023-03-07T05:34:58.395Z,8.13
2023-03-07T05:37:03.414Z,8.57
2023-03-07T05:39:05.469Z,8.97
2023-03-07T05:41:09.734Z,9.20
2023-03-07T05:43:11.476Z,8.55
2023-03-07T05:45:13.713Z,7.87
2023-03-07T05:47:15.747Z,7.30
2023-03-07T05:49:17.431Z,7.63
2023-03-07T05:51:19.176Z,8.13
2023-03-07T05:53:21.027Z,8.27
2023-03-07T05:55:23.925Z,8.18
2023-03-07T05:57:25.669Z,8.70
2023-03-07T05:59:28.877Z,7.90
2023-03-07T06:01:30.588Z,8.33
2023-03-07T06:03:32.833Z,8.50
2023-03-07T06:05:34.602Z,7.90
2023-03-07T06:07:36.982Z,8.45
2023-03-07T06:09:39.475Z,8.38
2023-03-07T06:11:41.704Z,8.30
2023-03-07T06:13:44.888Z,8.07
2023-03-07T06:15:49.799Z,8.00
2023-03-07T06:17:55.293Z,7.70
2023-03-07T06:19:56.948Z,8.27
2023-03-07T06:21:58.814Z,7.63
2023-03-07T06:24:03.901Z,7.63
2023-03-07T06:26:05.557Z,8.65
2023-03-07T06:28:07.265Z,9.00
2023-03-07T06:30:11.239Z,8.43
2023-03-07T06:32:12.983Z,7.32
2023-03-07T06:34:17.606Z,8.83
2023-03-07T06:36:21.486Z,8.30
2023-03-07T06:38:32.419Z,7.55
2023-03-07T06:40:35.902Z,8.82
2023-03-07T06:42:38.273Z,7.68
2023-03-07T06:44:42.353Z,8.82
2023-03-07T06:46:45.838Z,8.73
2023-03-07T06:48:52.291Z,8.57
2023-03-07T06:50:55.406Z,9.05
2023-03-07T06:52:57.173Z,9.23
2023-03-07T06:54:59.439Z,8.95
2023-03-07T06:57:02.241Z,8.88
2023-03-07T06:59:04.303Z,9.00
2023-03-07T07:01:06.127Z,8.35
2023-03-07T07:03:14.999Z,8.52
2023-03-07T07:05:16.978Z,9.48
2023-03-07T07:07:20.401Z,9.23
2023-03-07T07:09:22.300Z,8.77
2023-03-07T07:11:26.085Z,9.07
2023-03-07T07:13:28.356Z,8.98
2023-03-07T07:15:31.290Z,8.95
2023-03-07T07:17:40.759Z,9.13
2023-03-07T07:19:43.182Z,8.40
2023-03-07T07:21:45.022Z,8.60
2023-03-07T07:23:49.394Z,9.02
2023-03-07T07:25:54.200Z,8.68
2023-03-07T07:27:55.858Z,8.93
2023-03-07T07:29:57.701Z,9.27
2023-03-07T07:31:59.802Z,9.10
2023-03-07T07:34:01.839Z,8.50
2023-03-07T07:36:06.149Z,9.63
2023-03-07T07:38:10.254Z,8.63
2023-03-07T07:40:12.840Z,9.67
2023-03-07T07:42:14.675Z,8.85
2023-03-07T07:44:31.205Z,9.02
2023-03-07T07:46:37.910Z,9.27
2023-03-07T07:48:42.408Z,8.98
2023-03-07T07:50:44.549Z,8.52
2023-03-07T07:52:47.169Z,8.32
2023-03-07T07:54:51.484Z,8.13
2023-03-07T07:56:53.292Z,7.85
2023-03-07T07:58:56.428Z,8.02
2023-03-07T08:00:58.396Z,7.97
2023-03-07T08:03:00.245Z,8.75
2023-03-07T08:05:02.434Z,8.45
2023-03-07T08:07:04.411Z,7.68
2023-03-07T08:09:06.192Z,8.38
2023-03-07T08:11:08.515Z,7.65
2023-03-07T08:13:17.780Z,8.20
2023-03-07T08:15:21.766Z,7.53
2023-03-07T08:17:23.465Z,8.20
2023-03-07T08:19:27.868Z,8.10
2023-03-07T08:21:29.546Z,8.23
2023-03-07T08:23:31.123Z,7.80
2023-03-07T08:25:33.259Z,7.20
2023-03-07T08:27:34.966Z,7.60
2023-03-07T08:29:36.938Z,7.78
2023-03-07T08:31:38.567Z,7.60
2023-03-07T08:33:40.826Z,7.50
2023-03-07T08:35:42.481Z,6.85
2023-03-07T08:37:44.571Z,7.00
2023-03-07T08:39:46.441Z,6.95
2023-03-07T08:41:48.152Z,7.25
2023-03-07T08:43:49.941Z,7.00
2023-03-07T08:45:53.020Z,7.35
2023-03-07T08:47:56.355Z,6.78
2023-03-07T08:49:58.298Z,6.78
2023-03-07T08:52:00.007Z,7.13
2023-03-07T08:54:01.747Z,7.85
2023-03-07T08:56:08.127Z,7.43
2023-03-07T08:58:10.565Z,7.25
2023-03-07T09:00:13.486Z,6.97
2023-03-07T09:02:15.140Z,6.63
2023-03-07T09:04:16.831Z,6.55
2023-03-07T09:06:20.491Z,7.03
2023-03-07T09:08:22.245Z,6.25
2023-03-07T09:10:25.090Z,6.28
2023-03-07T09:12:26.862Z,7.28
2023-03-07T09:14:28.505Z,6.72
2023-03-07T09:16:30.313Z,6.25
2023-03-07T09:18:32.353Z,6.15
2023-03-07T09:20:34.338Z,6.53
2023-03-07T09:22:36.115Z,6.63
2023-03-07T09:24:37.795Z,5.80
2023-03-07T09:26:39.853Z,5.80
2023-03-07T09:28:41.398Z,6.45
2023-03-07T09:30:45.715Z,5.80
2023-03-07T09:32:51.579Z,5.78
2023-03-07T09:34:54.100Z,6.47
2023-03-07T09:36:56.292Z,5.80
2023-03-07T09:38:58.340Z,5.60
2023-03-07T09:41:18.286Z,5.97
2023-03-07T09:43:22.658Z,5.85
2023-03-07T09:45:57.163Z,5.70
2023-03-07T09:48:17.656Z,6.05
2023-03-07T09:50:46.192Z,5.70
2023-03-07T09:52:48.274Z,5.50
2023-03-07T09:54:59.617Z,5.35
2023-03-07T09:57:07.102Z,5.80
2023-03-07T09:59:22.867Z,6.30
2023-03-07T10:01:29.129Z,5.22
2023-03-07T10:03:38.882Z,5.63
2023-03-07T10:05:45.725Z,5.72
2023-03-07T10:07:47.579Z,5.18
2023-03-07T10:10:15.921Z,4.78
2023-03-07T10:12:36.877Z,5.30
2023-03-07T10:15:03.815Z,5.18
2023-03-07T10:17:35.369Z,5.68
2023-03-07T10:19:40.294Z,5.95
2023-03-07T10:21:51.268Z,5.65
2023-03-07T10:24:01.664Z,5.72
2023-03-07T10:26:17.316Z,6.05
2023-03-07T10:28:32.599Z,5.30
2023-03-07T10:30:34.241Z,5.57
2023-03-07T10:32:55.399Z,5.10
2023-03-07T10:35:12.449Z,5.30
2023-03-07T10:37:20.640Z,5.30
2023-03-07T10:39:34.497Z,5.22
2023-03-07T10:41:36.233Z,5.75
2023-03-07T10:43:39.446Z,5.38
2023-03-07T10:45:41.427Z,5.00
2023-03-07T10:47:44.690Z,5.55
2023-03-07T10:49:49.078Z,4.78
2023-03-07T10:52:27.800Z,4.82
2023-03-07T10:54:32.436Z,4.40
2023-03-07T10:56:35.757Z,4.53
2023-03-07T10:58:37.482Z,4.55
2023-03-07T11:00:39.268Z,3.90
2023-03-07T11:02:46.196Z,3.80
2023-03-07T11:04:48.139Z,4.00
2023-03-07T11:07:00.162Z,4.47
2023-03-07T11:09:38.842Z,4.15
2023-03-07T11:11:42.419Z,4.32
2023-03-07T11:14:04.822Z,3.75
2023-03-07T11:16:20.335Z,3.97
2023-03-07T11:18:42.257Z,4.20
2023-03-07T11:20:49.738Z,4.78
2023-03-07T11:23:20.165Z,4.18
2023-03-07T11:25:25.269Z,4.35
2023-03-07T11:27:47.030Z,3.88
2023-03-07T11:30:09.193Z,4.03
2023-03-07T11:32:24.686Z,3.88
2023-03-07T11:34:34.004Z,3.50
2023-03-07T11:36:38.196Z,4.03
2023-03-07T11:38:50.440Z,4.13
2023-03-07T11:41:27.128Z,3.70
2023-03-07T11:43:54.306Z,3.47
2023-03-07T11:46:03.906Z,3.42
2023-03-07T11:48:19.621Z,3.03
2023-03-07T11:50:27.016Z,3.10
2023-03-07T11:52:55.959Z,3.70
2023-03-07T11:55:06.964Z,3.40
2023-03-07T11:57:27.037Z,3.00
2023-03-07T12:00:23.889Z,3.10
2023-03-07T12:02:37.744Z,3.15
2023-03-07T12:05:01.001Z,3.28
2023-03-07T12:07:31.002Z,3.30
2023-03-07T12:09:57.528Z,3.55
2023-03-07T12:12:10.955Z,3.55
2023-03-07T12:14:50.477Z,3.75
2023-03-07T12:17:10.962Z,3.05
2023-03-07T12:19:47.259Z,3.40
2023-03-07T12:22:36.997Z,3.55
2023-03-07T12:24:52.419Z,3.60
2023-03-07T12:27:05.748Z,2.90
2023-03-07T12:29:17.856Z,3.55
2023-03-07T12:31:27.945Z,3.08
2023-03-07T12:34:07.195Z,2.80
2023-03-07T12:36:20.477Z,2.97
2023-03-07T12:38:43.080Z,2.90
2023-03-07T12:40:51.299Z,3.25
2023-03-07T12:42:59.072Z,3.30
2023-03-07T12:45:17.807Z,3.00
2023-03-07T12:47:32.284Z,2.70
2023-03-07T12:49:52.952Z,2.78
2023-03-07T12:52:01.617Z,2.70
2023-03-07T12:54:12.236Z,3.00
2023-03-07T12:56:31.126Z,3.15
2023-03-07T12:58:42.838Z,3.38
2023-03-07T13:00:50.524Z,3.25
2023-03-07T13:03:00.938Z,3.10
2023-03-07T13:05:04.492Z,3.17
2023-03-07T13:07:22.070Z,3.10
2023-03-07T13:09:26.190Z,3.42
2023-03-07T13:11:34.353Z,3.20
2023-03-07T13:13:45.093Z,3.28
2023-03-07T13:16:03.542Z,2.95
2023-03-07T13:18:24.640Z,3.20
2023-03-07T13:20:28.996Z,3.20
2023-03-07T13:22:31.199Z,2.97
2023-03-07T13:24:38.261Z,2.42
2023-03-07T13:26:39.997Z,2.70
2023-03-07T13:28:45.046Z,2.72
2023-03-07T13:31:18.751Z,2.65
2023-03-07T13:33:27.658Z,2.72
2023-03-07T13:35:30.523Z,3.17
2023-03-07T13:37:48.575Z,2.45
2023-03-07T13:40:03.297Z,2.78
2023-03-07T13:42:05.151Z,3.05
2023-03-07T13:44:28.751Z,3.20
2023-03-07T13:46:42.827Z,2.75
2023-03-07T13:48:44.551Z,2.80
2023-03-07T13:50:46.482Z,3.08
2023-03-07T13:52:49.530Z,3.00
2023-03-07T13:54:52.094Z,2.95
2023-03-07T13:56:55.016Z,2.92
2023-03-07T13:59:12.028Z,2.65
2023-03-07T14:01:19.894Z,3.65
2023-03-07T14:03:27.898Z,3.67
2023-03-07T14:05:36.259Z,3.00
2023-03-07T14:07:41.263Z,3.20
2023-03-07T14:09:51.415Z,3.22
2023-03-07T14:12:09.545Z,2.50
2023-03-07T14:14:27.940Z,3.03
2023-03-07T14:16:48.136Z,2.63
2023-03-07T14:19:14.070Z,3.53
2023-03-07T14:21:38.830Z,2.80
2023-03-07T14:24:09.345Z,3.42
2023-03-07T14:26:21.948Z,2.80
2023-03-07T14:28:29.621Z,2.95
2023-03-07T14:30:33.656Z,3.38
2023-03-07T14:32:35.413Z,3.20
2023-03-07T14:34:38.035Z,3.17
2023-03-07T14:36:39.968Z,3.15
2023-03-07T14:38:45.341Z,3.92
2023-03-07T14:41:18.036Z,3.58
2023-03-07T14:43:55.586Z,3.55
2023-03-07T14:46:13.457Z,3.28
2023-03-07T14:48:41.476Z,3.10
2023-03-07T14:50:47.228Z,3.40
2023-03-07T14:52:51.608Z,3.40
2023-03-07T14:54:59.993Z,3.30
2023-03-07T14:57:02.095Z,3.10
2023-03-07T14:59:06.111Z,3.60
2023-03-07T15:01:21.169Z,4.00
2023-03-07T15:03:23.210Z,3.85
2023-03-07T15:05:37.412Z,4.38
2023-03-07T15:07:39.106Z,3.55
2023-03-07T15:09:40.972Z,4.07
2023-03-07T15:11:58.104Z,4.82
2023-03-07T15:14:08.439Z,5.10
2023-03-07T15:16:18.794Z,5.07
2023-03-07T15:18:53.047Z,4.50
2023-03-07T15:20:57.073Z,3.53
2023-03-07T15:23:08.690Z,3.88
2023-03-07T15:25:25.926Z,3.38
2023-03-07T15:27:31.605Z,3.55
2023-03-07T15:29:34.089Z,3.78
2023-03-07T15:31:54.826Z,3.50
2023-03-07T15:34:11.123Z,3.00
2023-03-07T15:36:12.892Z,3.42
2023-03-07T15:38:19.105Z,3.70
2023-03-07T15:40:23.985Z,3.35
2023-03-07T15:42:26.148Z,3.85
2023-03-07T15:44:27.989Z,3.83
2023-03-07T15:46:32.457Z,3.67
2023-03-07T15:48:50.783Z,3.58
2023-03-07T15:50:58.868Z,3.65
2023-03-07T15:53:19.567Z,4.30
2023-03-07T15:55:26.028Z,3.95
2023-03-07T15:57:40.273Z,3.67
2023-03-07T15:59:47.365Z,3.88
2023-03-07T16:01:49.306Z,3.78
2023-03-07T16:03:54.136Z,3.38
2023-03-07T16:05:57.826Z,3.65
2023-03-07T16:07:59.499Z,4.65
2023-03-07T16:10:01.237Z,4.00
2023-03-07T16:12:03.048Z,3.85
2023-03-07T16:14:04.934Z,3.22
2023-03-07T16:16:19.661Z,3.72
2023-03-07T16:18:27.793Z,3.80
2023-03-07T16:20:29.732Z,3.42
2023-03-07T16:22:32.348Z,3.63
2023-03-07T16:24:35.328Z,3.80
2023-03-07T16:26:39.123Z,3.60
2023-03-07T16:28:42.220Z,3.60
2023-03-07T16:30:45.580Z,3.80
2023-03-07T16:32:47.316Z,3.50
2023-03-07T16:34:49.584Z,3.70
2023-03-07T16:36:51.239Z,3.65
2023-03-07T16:38:52.914Z,3.63
2023-03-07T16:40:54.811Z,3.65
2023-03-07T16:42:56.924Z,3.47
2023-03-07T16:44:58.492Z,3.47
2023-03-07T16:47:05.355Z,3.63
2023-03-07T16:49:18.491Z,3.80
2023-03-07T16:51:22.895Z,3.50
2023-03-07T16:53:27.318Z,3.95
2023-03-07T16:55:29.238Z,4.07
2023-03-07T16:57:31.030Z,4.70
2023-03-07T16:59:37.522Z,4.35
2023-03-07T17:01:39.575Z,4.65
2023-03-07T17:03:42.027Z,3.88
2023-03-07T17:05:43.780Z,4.47
2023-03-07T17:07:48.920Z,4.28
2023-03-07T17:09:54.791Z,4.10
2023-03-07T17:11:59.602Z,4.60
2023-03-07T17:14:05.020Z,3.75
2023-03-07T17:16:11.462Z,4.47
2023-03-07T17:18:13.630Z,4.47
2023-03-07T17:20:21.336Z,4.13
2023-03-07T17:22:23.409Z,4.25
2023-03-07T17:24:26.662Z,4.80
2023-03-07T17:26:46.262Z,4.38
2023-03-07T17:28:52.798Z,4.50
2023-03-07T17:30:54.697Z,4.07
2023-03-07T17:32:57.418Z,4.10
2023-03-07T17:34:59.339Z,4.38
2023-03-07T17:37:01.388Z,3.97
2023-03-07T17:39:03.242Z,3.78
2023-03-07T17:41:05.083Z,4.43
2023-03-07T17:43:06.762Z,4.10
2023-03-07T17:45:11.697Z,4.25
2023-03-07T17:47:13.844Z,4.10
2023-03-07T17:49:15.505Z,4.38
2023-03-07T17:51:17.352Z,4.28
2023-03-07T17:53:19.162Z,4.88
2023-03-07T17:55:24.096Z,4.05
2023-03-07T17:57:27.584Z,4.88
2023-03-07T17:59:32.170Z,5.00
2023-03-07T18:01:35.098Z,5.03
2023-03-07T18:03:37.712Z,4.55
2023-03-07T18:05:40.085Z,4.82
2023-03-07T18:07:42.247Z,4.55
2023-03-07T18:09:44.115Z,4.68
2023-03-07T18:11:46.146Z,4.30
2023-03-07T18:13:47.937Z,4.38
2023-03-07T18:15:49.594Z,4.38
2023-03-07T18:17:54.127Z,4.38
2023-03-07T18:19:58.507Z,4.32
2023-03-07T18:22:00.305Z,4.80
2023-03-07T18:24:02.016Z,4.50
2023-03-07T18:26:10.011Z,4.50
2023-03-07T18:28:11.632Z,4.28
2023-03-07T18:30:14.138Z,5.18
2023-03-07T18:32:15.953Z,4.28
2023-03-07T18:34:20.000Z,4.63
2023-03-07T18:36:23.951Z,4.22
2023-03-07T18:38:26.412Z,4.47
2023-03-07T18:40:27.901Z,4.45
2023-03-07T18:42:32.865Z,4.55
2023-03-07T18:44:34.998Z,4.40
2023-03-07T18:46:38.497Z,5.32
2023-03-07T18:48:40.258Z,5.28
2023-03-07T18:50:42.269Z,6.38
2023-03-07T18:52:44.114Z,5.28
2023-03-07T18:54:48.123Z,5.15
2023-03-07T18:56:50.105Z,5.07
2023-03-07T18:59:01.110Z,4.85
2023-03-07T19:01:21.024Z,4.65
2023-03-07T19:03:22.958Z,4.30
2023-03-07T19:05:24.639Z,4.55
2023-03-07T19:07:28.577Z,4.13
2023-03-07T19:09:31.749Z,4.35
2023-03-07T19:11:36.271Z,4.22
2023-03-07T19:13:38.915Z,4.32
2023-03-07T19:15:40.762Z,5.18
2023-03-07T19:17:42.472Z,4.47
2023-03-07T19:19:44.242Z,4.40
2023-03-07T19:21:46.471Z,4.72
2023-03-07T19:23:49.319Z,4.07
2023-03-07T19:25:51.456Z,4.10
2023-03-07T19:27:53.224Z,4.90
2023-03-07T19:29:57.408Z,4.88
2023-03-07T19:31:59.151Z,4.50
2023-03-07T19:34:03.312Z,4.80
2023-03-07T19:36:07.661Z,5.00
2023-03-07T19:38:10.004Z,5.35
2023-03-07T19:40:12.438Z,5.57
2023-03-07T19:42:14.217Z,4.60
2023-03-07T19:44:16.717Z,5.10
2023-03-07T19:46:21.157Z,4.88
2023-03-07T19:48:23.797Z,4.65
2023-03-07T19:50:25.301Z,5.07
2023-03-07T19:52:27.116Z,4.75
2023-03-07T19:54:31.972Z,4.40
2023-03-07T19:56:33.723Z,5.00
2023-03-07T19:58:37.121Z,4.70
2023-03-07T20:00:42.135Z,5.10
2023-03-07T20:02:46.785Z,4.88
2023-03-07T20:04:49.239Z,5.10
2023-03-07T20:06:51.015Z,4.90
2023-03-07T20:08:54.525Z,5.00
2023-03-07T20:11:08.714Z,5.30
2023-03-07T20:13:13.546Z,5.28
2023-03-07T20:15:15.205Z,5.05
2023-03-07T20:17:17.422Z,5.05
2023-03-07T20:19:21.931Z,5.70
2023-03-07T20:21:27.762Z,5.00
2023-03-07T20:23:30.112Z,4.80
2023-03-07T20:25:31.803Z,4.85
2023-03-07T20:27:33.558Z,5.03
2023-03-07T20:29:35.261Z,4.63
2023-03-07T20:31:39.425Z,4.80
2023-03-07T20:33:46.158Z,5.15
2023-03-07T20:35:47.851Z,4.95
2023-03-07T20:37:49.599Z,4.75
2023-03-07T20:39:51.321Z,4.93
2023-03-07T20:41:53.088Z,4.70
2023-03-07T20:43:59.219Z,4.90
2023-03-07T20:46:12.226Z,4.63
2023-03-07T20:48:14.434Z,4.55
2023-03-07T20:50:16.142Z,5.45
2023-03-07T20:52:17.911Z,4.90
2023-03-07T20:54:19.559Z,4.50
2023-03-07T20:56:22.658Z,4.78
2023-03-07T20:58:27.890Z,4.53
2023-03-07T21:00:32.737Z,4.88
2023-03-07T21:02:37.401Z,5.15
2023-03-07T21:04:41.396Z,5.22
2023-03-07T21:06:44.978Z,4.82
2023-03-07T21:08:51.674Z,4.70
2023-03-07T21:11:04.538Z,4.65
2023-03-07T21:13:06.352Z,4.68
2023-03-07T21:15:08.869Z,4.47
2023-03-07T21:17:12.824Z,4.32
2023-03-07T21:19:14.725Z,4.70
2023-03-07T21:21:22.716Z,4.80
2023-03-07T21:23:27.886Z,4.70
2023-03-07T21:25:29.741Z,4.57
2023-03-07T21:27:31.447Z,5.10
2023-03-07T21:29:33.172Z,4.43
2023-03-07T21:31:41.377Z,4.05
2023-03-07T21:33:45.600Z,4.53
2023-03-07T21:35:47.497Z,4.70
2023-03-07T21:37:49.242Z,4.88
2023-03-07T21:39:51.080Z,4.70
2023-03-07T21:41:52.651Z,4.28
2023-03-07T21:43:55.843Z,4.43
2023-03-07T21:45:57.937Z,5.28
2023-03-07T21:48:01.901Z,4.47
2023-03-07T21:50:04.087Z,4.65
2023-03-07T21:52:05.628Z,4.90
2023-03-07T21:54:07.377Z,4.70
2023-03-07T21:56:17.055Z,4.50
2023-03-07T21:58:20.178Z,4.68
2023-03-07T22:00:22.302Z,4.82
2023-03-07T22:02:26.776Z,4.93
2023-03-07T22:04:28.531Z,4.68
2023-03-07T22:06:31.322Z,5.25
2023-03-07T22:08:33.048Z,5.15
2023-03-07T22:10:34.812Z,5.15
2023-03-07T22:12:36.684Z,4.82
2023-03-07T22:14:38.611Z,5.30
2023-03-07T22:19:20.729Z,4.85
2023-03-07T22:21:24.914Z,4.57
2023-03-07T22:23:26.833Z,4.80
2023-03-07T22:25:28.599Z,4.80
2023-03-07T22:27:31.762Z,4.65
2023-03-07T22:29:33.398Z,5.05
2023-03-07T22:31:35.008Z,4.97
2023-03-07T22:33:39.184Z,4.70
2023-03-07T22:35:41.245Z,4.80
2023-03-07T22:37:44.295Z,4.82
2023-03-07T22:41:52.552Z,4.95
2023-03-07T22:43:54.610Z,4.75
2023-03-07T22:45:56.192Z,4.95
2023-03-07T22:47:57.873Z,4.70
2023-03-07T22:49:59.418Z,4.95
2023-03-07T22:52:28.987Z,4.60
2023-03-07T22:54:30.578Z,4.72
2023-03-07T22:56:32.904Z,4.78
2023-03-07T22:58:34.372Z,4.60
2023-03-07T23:00:40.044Z,4.38
2023-03-07T23:02:41.697Z,4.43
2023-03-07T23:04:43.543Z,4.50
2023-03-07T23:06:45.199Z,4.47
2023-03-07T23:08:48.627Z,4.47
2023-03-07T23:10:50.221Z,4.32
2023-03-07T23:12:51.867Z,4.88
2023-03-07T23:14:56.211Z,4.97
2023-03-07T23:16:58.936Z,4.88
2023-03-07T23:19:00.717Z,4.63
2023-03-07T23:21:07.205Z,4.53
2023-03-07T23:23:09.089Z,4.53
2023-03-07T23:25:11.301Z,4.47
2023-03-07T23:27:12.897Z,4.90
2023-03-07T23:29:14.540Z,4.57
2023-03-07T23:31:21.966Z,4.18
2023-03-07T23:33:24.197Z,4.68
2023-03-07T23:35:26.172Z,4.53
2023-03-07T23:37:31.963Z,4.82
2023-03-07T23:39:33.415Z,4.30
2023-03-07T23:41:35.128Z,4.40
2023-03-07T23:43:37.484Z,4.78
2023-03-07T23:45:39.290Z,4.72
2023-03-07T23:47:42.067Z,4.70
2023-03-07T23:49:43.826Z,5.00
2023-03-07T23:51:45.460Z,5.45
2023-03-07T23:53:47.511Z,4.55
2023-03-07T23:55:49.033Z,4.70
2023-03-07T23:57:50.651Z,5.18
2023-03-07T23:59:52.193Z,5.32
